METAR Data
IDs: Format: Raw Decoded Include TAF

Data at: 2100 UTC 08 Aug 2020

Region: TOP
KATL 082052Z 31007G17KT 10SM FEW060TCU 34/18 A3012 RMK AO2 SLP186 TCU SE-SW T03440178 56016

KBOS 082054Z 10012KT 10SM FEW060 FEW200 23/15 A3011 RMK AO2 SLP196 T02330150 58012

KBWI 082054Z 24005KT 10SM SCT036 30/20 A3011 RMK AO2 SLP194 T03000200 56012

KCLE 082051Z 36009KT 10SM FEW045 FEW250 26/16 A3018 RMK AO2 SLP218 T02610161 55010 $

KCLT 082052Z VRB04KT 10SM SCT040 SCT250 32/20 A3011 RMK AO2 SLP185 T03220200 56017

KCVG 082052Z 27007KT 10SM FEW050 FEW250 28/15 A3015 RMK AO2 SLP201 T02830150 56013

KDCA 082052Z 03004KT 10SM SCT040 29/21 A3012 RMK AO2 SLP199 T02940211 58014

KDEN 082053Z 14004KT 10SM FEW120 FEW150 FEW200 34/M05 A3011 RMK AO2 SLP099 T03441050 58010

KDFW 082053Z 18012G17KT 10SM FEW250 36/18 A3002 RMK AO2 SLP153 T03610178 56016

KDTW 082053Z 18008KT 10SM FEW060 FEW250 28/14 A3015 RMK AO2 SLP205 T02780139 56009

KEWR 082051Z 17008KT 10SM FEW037 SCT050 SCT100 28/21 A3010 RMK AO2 SLP192 T02780206 56012

KFLL 082053Z 08010KT 10SM SCT024 SCT250 32/26 A3010 RMK AO2 SLP191 T03170256 55005

KIAD 082052Z VRB03KT 10SM SCT037 SCT044 29/21 A3013 RMK AO2 SLP198 T02890206 58015

KIAH 082053Z 15011KT 10SM SCT055TCU SCT090 BKN250 33/23 A3006 RMK AO2 SLP177 TCU AND VCSH SW T03330233 56014

KJFK 082051Z 15008KT 10SM FEW038 SCT060 26/21 A3013 RMK AO2 SLP203 T02560211 58005

KLAS 082056Z 08011G15KT 10SM FEW140 38/M04 A2995 RMK AO2 SLP110 FU FEW140 T03781039 58018

KLAX 082053Z 26011KT 10SM FEW011 22/15 A2999 RMK AO2 SLP153 T02170150 58007 $

KLGA 082051Z 16009KT 10SM FEW028 SCT040 BKN075 28/19 A3011 RMK AO2 SLP195 T02780194 56009

KMCO 082053Z 12003KT 10SM SCT055 SCT250 34/22 A3010 RMK AO2 SLP189 T03440222 56018

KMDW 082053Z 21009KT 10SM FEW042 BKN050 BKN250 30/19 A3008 RMK AO2 SLP176 T03000189 56008

KMEM 082054Z VRB03KT 10SM SCT060 SCT250 35/21 A3008 RMK AO2 SLP180 T03500206 56024

KMIA 082053Z 06012KT 10SM SCT032 SCT250 32/24 A3010 RMK AO2 LTG DSNT SW AND W SLP191 CB DSNT SW-NW MOV W T03170239 55008

KMSP 082053Z 28007KT 10SM OVC023 27/22 A2996 RMK AO2 RAB16E28 SLP140 P0000 60000 T02720222 50012

KORD 082051Z 18009KT 10SM SCT043 BKN055 31/20 A3007 RMK AO2 SLP177 T03110200 56009

KPDX 082053Z 32005KT 10SM BKN049 BKN060 BKN250 23/11 A3018 RMK AO2 SLP218 T02280106 56007

KPHL 082054Z 19006KT 10SM SCT040 BKN250 28/19 A3011 RMK AO2 SLP195 T02830189 57010 $

KPHX 082051Z 26005KT 10SM FEW100 42/04 A2983 RMK AO2 SLP079 T04220044 58019

KPIT 082051Z 30005KT 10SM FEW055 27/13 A3015 RMK AO2 SLP208 T02720133 56013 $

KSAN 082051Z 31010KT 10SM FEW020 24/16 A2998 RMK AO2 SLP153 T02390161 58010

KSEA 082053Z 01003KT 10SM FEW014 SCT029 OVC036 17/14 A3023 RMK AO2 SLP242 60000 T01670144 51005

KSFO 082056Z 03008KT 10SM FEW009 23/15 A2995 RMK AO2 SLP141 T02280150 58006

KSLC 082054Z 31010KT 10SM FEW160 SCT200 SCT230 34/M04 A3004 RMK AO2 SLP111 T03391044 58016

KSTL 082051Z 20006KT 10SM SCT044 BKN100 BKN200 31/21 A3008 RMK AO2 SLP172 T03110206 56015

KTPA 082053Z 03013G21KT 10SM -TSRA BKN043CB OVC080 29/21 A3013 RMK AO2 LTG DSNT N AND SE RAB24 SLP202 FRQ LTGICCCCG OHD AND SE TS OHD AND SE MOV N TCU ALQDS P0000 60000 T02890206 55004